Time;durP1;ratioP1;P1;durP2;ratioP2;P2;SDS_P1;SDS_P2;PMS_P1;PMS_P2;Temp;Humidity;BMP_temperature;BMP_pressure;BME280_temperature;BME280_humidity;BME280_pressure;Samples;Min_cycle;Max_cycle;Signal;HPM_P1;HPM_P2
2023/07/28 00:01:32;;;;;;;15.13;6.22;;;17.70;99.90;;;;;;5020623;28;20037;-87
2023/07/28 00:03:59;;;;;;;10.82;6.38;;;17.80;99.90;;;;;;5016994;28;20137;-87
2023/07/28 00:06:25;;;;;;;15.60;6.68;;;17.80;99.90;;;;;;5032817;28;20038;-87
2023/07/28 00:08:52;;;;;;;16.60;6.35;;;17.80;99.90;;;;;;5016769;28;20037;-87
2023/07/28 00:11:19;;;;;;;15.80;6.93;;;17.80;99.90;;;;;;5032908;28;20049;-87
2023/07/28 00:13:48;;;;;;;14.57;6.25;;;17.80;99.90;;;;;;5033130;28;20042;-87
2023/07/28 00:16:15;;;;;;;14.52;6.47;;;17.80;99.90;;;;;;5016661;28;20054;-87
2023/07/28 00:18:42;;;;;;;19.98;7.07;;;17.80;99.90;;;;;;5032769;28;20058;-87
2023/07/28 00:21:08;;;;;;;19.75;7.03;;;17.70;99.90;;;;;;5016736;28;20050;-87
2023/07/28 00:23:35;;;;;;;16.02;7.90;;;17.80;99.90;;;;;;5016831;28;20421;-86
2023/07/28 00:26:02;;;;;;;16.73;7.53;;;17.70;99.90;;;;;;5032838;28;20081;-88
2023/07/28 00:28:28;;;;;;;22.27;7.97;;;17.80;99.90;;;;;;5016012;28;20053;-87
2023/07/28 00:30:55;;;;;;;19.33;8.30;;;17.80;99.90;;;;;;5032772;28;20034;-87
2023/07/28 00:33:22;;;;;;;21.98;7.68;;;17.80;99.90;;;;;;5016546;28;20042;-88
2023/07/28 00:35:49;;;;;;;22.38;8.55;;;17.80;99.90;;;;;;5032683;28;20099;-87
2023/07/28 00:38:16;;;;;;;22.13;8.63;;;17.80;99.90;;;;;;5032244;28;20096;-87
2023/07/28 00:40:43;;;;;;;21.88;8.40;;;17.80;99.90;;;;;;5032407;28;20045;-87
2023/07/28 00:43:09;;;;;;;23.05;9.27;;;17.70;99.90;;;;;;5015953;28;20049;-88
2023/07/28 00:45:36;;;;;;;23.20;9.23;;;17.80;99.90;;;;;;5016121;28;20042;-87
2023/07/28 00:48:08;;;;;;;27.90;9.27;;;17.80;99.90;;;;;;5032611;28;20069;-87
2023/07/28 00:50:35;;;;;;;20.38;8.63;;;17.80;99.90;;;;;;5032244;28;20469;-87
2023/07/28 00:53:02;;;;;;;20.83;9.15;;;17.80;99.90;;;;;;5031328;28;20073;-87
2023/07/28 00:55:29;;;;;;;25.40;9.23;;;17.80;99.90;;;;;;5015657;28;20042;-88
2023/07/28 00:57:56;;;;;;;27.88;8.93;;;17.80;99.90;;;;;;5016337;28;20402;-88
2023/07/28 01:00:23;;;;;;;18.20;8.10;;;17.80;99.90;;;;;;5015940;28;20095;-88
2023/07/28 01:02:50;;;;;;;19.20;8.65;;;17.80;99.90;;;;;;5032534;28;20133;-87
2023/07/28 01:05:16;;;;;;;15.73;7.93;;;17.80;99.90;;;;;;5046925;28;20081;-87
2023/07/28 01:07:53;;;;;;;20.70;8.10;;;17.70;99.90;;;;;;5052009;28;20033;-87
2023/07/28 01:10:30;;;;;;;20.17;8.75;;;17.80;99.90;;;;;;5031801;28;20533;-87
2023/07/28 01:12:57;;;;;;;17.42;8.32;;;17.80;99.90;;;;;;5048832;28;20053;-87
2023/07/28 01:15:24;;;;;;;21.67;8.70;;;17.80;99.90;;;;;;5015605;28;20042;-87
2023/07/28 01:17:51;;;;;;;19.40;8.00;;;17.80;99.90;;;;;;5031755;28;20137;-88
2023/07/28 01:20:17;;;;;;;18.83;8.52;;;17.80;99.90;;;;;;5049185;28;20045;-86
2023/07/28 01:23:14;;;;;;;19.55;8.20;;;17.80;99.90;;;;;;5051595;28;20209;-87
2023/07/28 01:26:04;;;;;;;20.73;8.35;;;17.80;99.90;;;;;;5050993;28;20044;-87
2023/07/28 01:28:34;;;;;;;23.60;8.68;;;17.80;99.90;;;;;;5051343;28;20088;-87
2023/07/28 01:31:06;;;;;;;23.38;9.10;;;17.80;99.90;;;;;;5051234;28;20505;-87
2023/07/28 01:33:33;;;;;;;18.83;8.55;;;17.80;99.90;;;;;;5034631;28;20038;-86
2023/07/28 01:36:00;;;;;;;17.67;8.57;;;17.80;99.90;;;;;;5050823;28;20128;-87
2023/07/28 01:38:28;;;;;;;17.73;8.88;;;17.80;99.90;;;;;;5050831;28;20048;-87
2023/07/28 01:40:55;;;;;;;21.20;9.25;;;17.80;99.90;;;;;;5051039;28;20042;-86
2023/07/28 01:43:21;;;;;;;18.80;9.27;;;17.80;99.90;;;;;;5050750;28;20893;-85
2023/07/28 01:45:48;;;;;;;21.85;9.85;;;17.80;99.90;;;;;;5050991;28;20029;-86
2023/07/28 01:48:15;;;;;;;24.17;10.00;;;17.80;99.90;;;;;;5034516;28;20120;-87
2023/07/28 01:50:42;;;;;;;19.90;9.50;;;17.80;99.90;;;;;;5051183;28;20083;-86
2023/07/28 01:53:09;;;;;;;21.58;9.32;;;17.80;99.90;;;;;;5051092;28;20405;-87
2023/07/28 01:55:36;;;;;;;21.75;9.45;;;17.80;99.90;;;;;;5034465;28;20045;-87
2023/07/28 01:58:03;;;;;;;26.77;11.18;;;17.70;99.90;;;;;;5034416;28;20053;-88
2023/07/28 02:00:30;;;;;;;25.20;10.75;;;17.80;99.90;;;;;;5034268;28;20493;-86
2023/07/28 02:02:58;;;;;;;25.80;10.95;;;17.80;99.90;;;;;;5034371;28;20052;-87
2023/07/28 02:05:24;;;;;;;22.80;10.60;;;17.70;99.90;;;;;;5018510;28;20050;-86
2023/07/28 02:07:51;;;;;;;26.58;11.40;;;17.80;99.90;;;;;;5015175;28;20041;-86
2023/07/28 02:10:18;;;;;;;26.25;10.80;;;17.80;99.90;;;;;;5014879;28;20073;-87
2023/07/28 02:12:44;;;;;;;25.98;10.45;;;17.80;99.90;;;;;;5014321;28;20508;-87
2023/07/28 02:15:11;;;;;;;26.55;11.27;;;17.80;99.90;;;;;;5014801;28;20056;-87
2023/07/28 02:17:38;;;;;;;28.77;10.85;;;17.70;99.90;;;;;;5014763;28;20038;-87
2023/07/28 02:20:05;;;;;;;22.23;10.65;;;17.70;99.90;;;;;;4999002;28;20044;-87
2023/07/28 02:22:32;;;;;;;23.95;10.20;;;17.70;99.90;;;;;;4998415;28;20112;-88
2023/07/28 02:25:02;;;;;;;24.38;11.15;;;17.80;99.90;;;;;;5013872;28;20049;-87
2023/07/28 02:27:29;;;;;;;25.42;10.48;;;17.80;99.90;;;;;;4998599;28;20033;-87
2023/07/28 02:29:55;;;;;;;25.05;10.90;;;17.80;99.90;;;;;;5014916;28;20053;-88
2023/07/28 02:32:22;;;;;;;23.88;10.75;;;17.80;99.90;;;;;;4998539;28;20038;-86
2023/07/28 02:34:49;;;;;;;22.45;10.82;;;17.80;99.90;;;;;;4997875;28;20091;-87
2023/07/28 02:37:16;;;;;;;18.65;10.30;;;17.80;99.90;;;;;;5014376;28;20046;-87
2023/07/28 02:39:43;;;;;;;23.92;10.55;;;17.80;99.90;;;;;;5014471;28;20657;-88
2023/07/28 02:42:10;;;;;;;22.38;9.85;;;17.80;99.90;;;;;;5014496;28;20038;-86
2023/07/28 02:44:36;;;;;;;20.25;9.57;;;17.70;99.90;;;;;;4997904;28;20044;-87
2023/07/28 02:47:06;;;;;;;23.90;9.85;;;17.70;99.90;;;;;;4998713;28;20494;-87
2023/07/28 02:49:33;;;;;;;25.83;9.60;;;17.80;99.90;;;;;;5013648;28;20037;-87
2023/07/28 02:52:00;;;;;;;18.65;8.90;;;17.70;99.90;;;;;;4998040;28;20077;-87
2023/07/28 02:54:27;;;;;;;22.85;9.73;;;17.70;99.90;;;;;;4998074;28;20868;-88
2023/07/28 02:56:54;;;;;;;17.55;9.05;;;17.70;99.90;;;;;;5014211;28;20184;-87
2023/07/28 02:59:22;;;;;;;19.98;9.45;;;17.70;99.90;;;;;;5030561;28;20529;-87
2023/07/28 03:01:51;;;;;;;18.67;9.48;;;17.70;99.90;;;;;;5013837;28;20899;-87
2023/07/28 03:04:22;;;;;;;21.95;10.65;;;17.80;99.90;;;;;;5017182;28;20056;-87
2023/07/28 03:06:49;;;;;;;21.05;10.40;;;17.70;99.90;;;;;;5014009;28;20441;-87
2023/07/28 03:09:16;;;;;;;25.55;10.63;;;17.80;99.90;;;;;;5030247;28;20053;-87
2023/07/28 03:11:43;;;;;;;23.73;11.60;;;17.80;99.90;;;;;;5029869;28;20040;-87
2023/07/28 03:14:11;;;;;;;24.65;11.98;;;17.70;99.90;;;;;;5013902;28;20044;-87
2023/07/28 03:16:37;;;;;;;25.90;11.52;;;17.70;99.90;;;;;;5017071;28;20080;-87
2023/07/28 03:19:04;;;;;;;34.03;12.50;;;17.70;99.90;;;;;;5034347;28;20596;-87
2023/07/28 03:21:34;;;;;;;24.52;11.50;;;17.70;99.90;;;;;;5018161;28;20120;-88
2023/07/28 03:24:00;;;;;;;29.35;12.50;;;17.80;99.90;;;;;;5034305;28;20045;-87
2023/07/28 03:26:27;;;;;;;28.88;12.50;;;17.80;99.90;;;;;;5017864;28;20379;-87
2023/07/28 03:28:54;;;;;;;31.00;12.57;;;17.70;99.90;;;;;;5017316;28;20084;-87
2023/07/28 03:31:20;;;;;;;24.33;12.02;;;17.80;99.90;;;;;;5017701;28;20034;-87
2023/07/28 03:33:47;;;;;;;28.83;12.50;;;17.80;99.90;;;;;;5033564;28;20084;-87
2023/07/28 03:36:14;;;;;;;28.77;13.13;;;17.80;99.90;;;;;;5017715;28;20077;-87
2023/07/28 03:38:41;;;;;;;24.75;11.65;;;17.80;99.90;;;;;;5033642;28;20041;-87
2023/07/28 03:41:08;;;;;;;24.67;11.88;;;17.70;99.90;;;;;;5017952;28;20406;-87
2023/07/28 03:43:34;;;;;;;27.00;12.05;;;17.80;99.90;;;;;;5033988;28;20145;-87
2023/07/28 03:46:01;;;;;;;25.08;12.02;;;17.70;99.90;;;;;;5033718;28;20050;-87
2023/07/28 03:48:28;;;;;;;32.33;12.40;;;17.70;99.90;;;;;;5017300;28;20034;-88
2023/07/28 03:50:55;;;;;;;27.27;11.70;;;17.80;99.90;;;;;;5017237;28;20041;-87
2023/07/28 03:53:22;;;;;;;30.73;11.23;;;17.70;99.90;;;;;;5032931;28;20049;-87
2023/07/28 03:55:49;;;;;;;28.52;11.98;;;17.70;99.90;;;;;;5033176;28;20038;-88
2023/07/28 03:58:16;;;;;;;28.75;11.70;;;17.80;99.90;;;;;;5017158;28;20540;-87
2023/07/28 04:00:42;;;;;;;30.83;11.90;;;17.80;99.90;;;;;;5016997;28;20045;-87
2023/07/28 04:03:09;;;;;;;33.08;12.50;;;17.70;99.90;;;;;;5016533;28;20042;-86
2023/07/28 04:05:37;;;;;;;33.95;12.00;;;17.80;99.90;;;;;;5016927;28;20103;-87
2023/07/28 04:08:04;;;;;;;29.35;12.15;;;17.80;99.90;;;;;;5049620;28;20034;-87
2023/07/28 04:10:30;;;;;;;30.70;11.35;;;17.80;99.90;;;;;;5032924;28;20109;-87
2023/07/28 04:12:57;;;;;;;26.38;11.60;;;17.70;99.90;;;;;;5032636;28;20072;-87
2023/07/28 04:15:23;;;;;;;31.88;11.63;;;17.80;99.90;;;;;;5033021;28;20096;-87
2023/07/28 04:17:53;;;;;;;24.65;11.05;;;17.80;99.90;;;;;;5032572;28;20129;-87
2023/07/28 04:20:19;;;;;;;30.77;11.35;;;17.70;99.90;;;;;;5049298;28;20042;-87
2023/07/28 04:22:47;;;;;;;25.25;10.32;;;17.80;99.90;;;;;;5032982;28;20050;-87
2023/07/28 04:25:13;;;;;;;29.20;11.07;;;17.70;99.90;;;;;;5049510;28;20046;-87
2023/07/28 04:27:40;;;;;;;26.80;10.98;;;17.80;99.90;;;;;;5048209;28;20060;-88
2023/07/28 04:30:07;;;;;;;28.60;10.93;;;17.70;99.90;;;;;;5032525;28;20068;-86
2023/07/28 04:32:33;;;;;;;26.85;11.02;;;17.80;99.90;;;;;;5032940;28;20367;-87
2023/07/28 04:35:00;;;;;;;26.73;10.32;;;17.80;99.90;;;;;;5033028;28;20136;-87
2023/07/28 04:37:27;;;;;;;31.92;10.07;;;17.80;99.90;;;;;;5032958;28;20034;-87
2023/07/28 04:39:53;;;;;;;33.28;10.63;;;17.80;99.90;;;;;;5032444;28;20041;-86
2023/07/28 04:42:20;;;;;;;29.80;10.10;;;17.70;99.90;;;;;;5033123;28;20048;-87
2023/07/28 04:44:47;;;;;;;24.40;9.38;;;17.80;99.90;;;;;;5048638;28;20096;-87
2023/07/28 04:47:14;;;;;;;24.83;9.18;;;17.80;99.90;;;;;;5032721;28;20042;-87
2023/07/28 04:49:40;;;;;;;26.90;10.07;;;17.80;99.90;;;;;;5032633;28;20042;-87
2023/07/28 04:52:08;;;;;;;27.08;8.77;;;17.80;99.90;;;;;;5032106;28;20065;-87
2023/07/28 04:54:35;;;;;;;28.85;9.05;;;17.80;99.90;;;;;;5032413;28;20470;-87
2023/07/28 04:57:01;;;;;;;28.08;9.30;;;17.80;99.90;;;;;;5032121;28;20106;-87
2023/07/28 04:59:28;;;;;;;26.63;9.57;;;17.80;99.90;;;;;;5032372;28;20041;-87
2023/07/28 05:01:56;;;;;;;23.73;9.25;;;17.80;99.90;;;;;;5031848;28;20096;-86
2023/07/28 05:04:23;;;;;;;23.33;8.27;;;17.90;99.90;;;;;;5048229;28;20068;-87
2023/07/28 05:06:49;;;;;;;21.27;8.52;;;17.90;99.90;;;;;;5031635;28;20486;-86
2023/07/28 05:09:16;;;;;;;20.15;8.40;;;17.90;99.90;;;;;;5032172;28;20047;-86
2023/07/28 05:11:43;;;;;;;21.15;8.48;;;17.90;99.90;;;;;;5031749;28;20067;-87
2023/07/28 05:14:09;;;;;;;22.75;7.97;;;17.90;99.90;;;;;;5047716;28;20122;-86
2023/07/28 05:16:36;;;;;;;22.00;8.30;;;17.90;99.90;;;;;;5048117;28;20042;-87
2023/07/28 05:19:06;;;;;;;21.73;8.25;;;17.90;99.90;;;;;;5031388;28;20083;-87
2023/07/28 05:21:32;;;;;;;22.17;8.02;;;17.90;99.90;;;;;;5048274;28;20050;-88
2023/07/28 05:23:59;;;;;;;19.50;7.65;;;17.90;99.90;;;;;;5031209;28;20042;-87
2023/07/28 05:26:26;;;;;;;21.23;8.20;;;17.90;99.90;;;;;;5031277;28;20139;-87
2023/07/28 05:28:52;;;;;;;22.08;7.82;;;17.90;99.90;;;;;;5047171;28;20041;-86
2023/07/28 05:31:19;;;;;;;19.48;7.90;;;17.90;99.90;;;;;;5031011;28;20494;-87
2023/07/28 05:33:46;;;;;;;20.33;7.25;;;18.00;99.90;;;;;;5032101;28;20073;-87
2023/07/28 05:36:13;;;;;;;19.40;7.75;;;18.00;99.90;;;;;;5031313;28;20042;-87
2023/07/28 05:38:40;;;;;;;19.23;7.60;;;18.00;99.90;;;;;;5047304;28;20132;-86
2023/07/28 05:41:07;;;;;;;14.63;7.63;;;18.00;99.90;;;;;;5031840;28;20092;-87
2023/07/28 05:43:33;;;;;;;21.35;7.38;;;18.10;99.90;;;;;;5031011;28;20501;-87
2023/07/28 05:46:01;;;;;;;18.27;7.03;;;18.00;99.90;;;;;;5014910;28;20034;-86
2023/07/28 05:48:28;;;;;;;16.70;7.20;;;18.10;99.90;;;;;;5047371;28;20092;-87
2023/07/28 05:50:55;;;;;;;17.27;6.88;;;18.00;99.90;;;;;;5030919;28;20038;-87
2023/07/28 05:53:21;;;;;;;21.48;6.72;;;18.00;99.90;;;;;;5031420;28;20045;-86
2023/07/28 05:55:51;;;;;;;17.65;6.97;;;18.00;99.90;;;;;;5031633;28;20030;-87
2023/07/28 05:58:18;;;;;;;18.60;7.38;;;18.10;99.90;;;;;;5031601;28;20125;-87
2023/07/28 06:00:44;;;;;;;15.10;6.93;;;18.00;99.90;;;;;;5031000;28;20148;-87
2023/07/28 06:03:16;;;;;;;16.40;6.85;;;18.00;99.90;;;;;;5031031;28;20979;-87
2023/07/28 06:05:43;;;;;;;16.02;6.38;;;18.10;99.90;;;;;;5047142;28;20057;-87
2023/07/28 06:08:09;;;;;;;13.98;5.97;;;18.10;99.90;;;;;;5030719;28;20405;-86
2023/07/28 06:10:37;;;;;;;13.18;6.57;;;18.20;99.90;;;;;;5030873;28;20139;-87
2023/07/28 06:13:03;;;;;;;10.48;6.07;;;18.20;99.90;;;;;;5047033;28;20057;-87
2023/07/28 06:15:30;;;;;;;19.25;6.75;;;18.20;99.90;;;;;;5030592;28;20042;-87
2023/07/28 06:17:57;;;;;;;15.68;6.85;;;18.30;99.90;;;;;;5047183;28;20045;-87
2023/07/28 06:20:24;;;;;;;17.42;6.93;;;18.20;99.90;;;;;;5030282;28;20045;-87
2023/07/28 06:22:50;;;;;;;14.52;6.63;;;18.20;99.90;;;;;;5030757;28;20038;-87
2023/07/28 06:25:17;;;;;;;15.68;7.35;;;18.30;99.90;;;;;;5030011;28;20049;-87
2023/07/28 06:27:44;;;;;;;15.55;6.93;;;18.20;99.90;;;;;;5046477;28;20049;-87
2023/07/28 06:30:11;;;;;;;21.38;6.78;;;18.30;99.90;;;;;;5045991;28;20509;-87
2023/07/28 06:32:38;;;;;;;15.25;7.10;;;18.30;99.90;;;;;;5030242;28;20037;-87
2023/07/28 06:35:06;;;;;;;17.27;6.70;;;18.40;99.90;;;;;;5046302;28;20096;-86
2023/07/28 06:37:36;;;;;;;14.95;6.95;;;18.50;99.90;;;;;;5046631;28;20111;-87
2023/07/28 06:40:05;;;;;;;17.10;7.47;;;18.50;99.90;;;;;;5033115;28;20037;-86
2023/07/28 06:42:33;;;;;;;11.27;6.18;;;18.70;99.90;;;;;;5046369;28;20117;-87
2023/07/28 06:45:00;;;;;;;13.02;6.43;;;18.70;99.90;;;;;;5046037;28;20505;-86
2023/07/28 06:47:27;;;;;;;15.02;6.10;;;18.70;99.90;;;;;;5029804;28;20038;-87
2023/07/28 06:49:53;;;;;;;10.48;5.70;;;18.90;99.90;;;;;;5029495;28;20124;-87
2023/07/28 06:52:21;;;;;;;11.25;5.55;;;18.90;99.90;;;;;;5029901;28;20041;-86
2023/07/28 06:54:49;;;;;;;9.80;5.32;;;19.00;99.90;;;;;;5030237;28;20096;-87
2023/07/28 06:57:16;;;;;;;9.45;4.78;;;19.10;99.90;;;;;;5046463;28;20505;-87
2023/07/28 06:59:43;;;;;;;11.43;5.15;;;19.20;99.90;;;;;;5029696;28;20100;-86
2023/07/28 07:02:10;;;;;;;12.35;5.05;;;19.20;99.90;;;;;;5046247;28;20065;-87
2023/07/28 07:04:37;;;;;;;13.20;4.65;;;19.20;99.90;;;;;;5049185;28;20115;-87
2023/07/28 07:07:04;;;;;;;9.63;4.60;;;19.20;99.90;;;;;;5017149;28;20083;-86
2023/07/28 07:09:30;;;;;;;10.00;4.53;;;19.10;99.90;;;;;;5033000;28;20045;-87
2023/07/28 07:11:57;;;;;;;9.00;4.50;;;19.10;99.90;;;;;;5049627;28;20045;-87
2023/07/28 07:14:24;;;;;;;7.45;4.10;;;19.10;99.90;;;;;;5016734;28;20045;-86
2023/07/28 07:16:51;;;;;;;9.18;4.47;;;19.00;99.90;;;;;;5017153;28;20486;-87
2023/07/28 07:19:17;;;;;;;8.77;4.03;;;19.10;99.90;;;;;;5017570;28;20046;-87
2023/07/28 07:21:44;;;;;;;10.20;3.95;;;19.10;99.90;;;;;;5016791;28;20068;-86
2023/07/28 07:24:13;;;;;;;7.80;3.97;;;19.10;99.90;;;;;;5032762;28;20053;-86
2023/07/28 07:26:40;;;;;;;7.53;4.38;;;19.20;99.90;;;;;;5032916;28;20049;-87
2023/07/28 07:29:08;;;;;;;9.80;4.25;;;19.20;99.90;;;;;;5016770;28;20586;-87
2023/07/28 07:31:35;;;;;;;8.98;4.28;;;19.20;99.90;;;;;;5017166;28;20044;-87
2023/07/28 07:34:04;;;;;;;6.82;4.07;;;19.30;99.90;;;;;;5049637;28;20042;-86
2023/07/28 07:36:31;;;;;;;8.45;4.30;;;19.40;99.90;;;;;;5032904;28;20060;-87
2023/07/28 07:38:58;;;;;;;6.38;4.05;;;19.60;99.90;;;;;;5032914;28;20041;-87
2023/07/28 07:41:24;;;;;;;10.30;4.68;;;19.60;99.90;;;;;;5049225;28;20083;-87
2023/07/28 07:43:54;;;;;;;7.10;4.35;;;19.50;99.90;;;;;;5008181;28;20108;-87
2023/07/28 07:46:21;;;;;;;7.20;4.82;;;19.50;99.90;;;;;;5049218;28;20045;-86
2023/07/28 07:48:48;;;;;;;8.23;4.57;;;19.50;99.90;;;;;;5049352;28;20099;-86
2023/07/28 07:51:15;;;;;;;6.97;4.05;;;19.50;99.90;;;;;;5032744;28;20041;-87
2023/07/28 07:53:42;;;;;;;5.78;3.97;;;19.50;99.90;;;;;;5021874;28;20065;-87
2023/07/28 07:56:09;;;;;;;5.40;4.05;;;19.40;99.90;;;;;;4997942;28;20038;-87
2023/07/28 07:58:36;;;;;;;7.40;3.88;;;19.50;99.90;;;;;;5046228;28;20042;-87
2023/07/28 08:01:04;;;;;;;5.65;3.60;;;19.60;99.90;;;;;;5030186;28;20045;-87
2023/07/28 08:03:31;;;;;;;5.60;3.65;;;19.70;99.90;;;;;;5033080;28;20034;-87
2023/07/28 08:05:58;;;;;;;7.07;3.90;;;19.70;99.90;;;;;;5001172;28;20085;-86
2023/07/28 08:08:27;;;;;;;8.90;3.75;;;19.80;99.90;;;;;;5016365;28;20147;-86
2023/07/28 08:10:54;;;;;;;6.97;3.72;;;19.80;99.90;;;;;;5016839;28;20034;-87
2023/07/28 08:13:21;;;;;;;5.82;3.88;;;19.90;99.90;;;;;;5032692;28;20038;-87
2023/07/28 08:15:48;;;;;;;5.00;3.70;;;19.80;99.90;;;;;;5016675;28;20462;-87
2023/07/28 08:18:15;;;;;;;6.30;3.97;;;19.80;99.90;;;;;;5032934;28;20131;-87
2023/07/28 08:20:42;;;;;;;8.15;3.72;;;19.80;99.90;;;;;;5032698;28;20570;-87
2023/07/28 08:23:09;;;;;;;7.20;4.57;;;19.80;99.90;;;;;;5032990;28;20042;-86
2023/07/28 08:25:36;;;;;;;7.35;3.78;;;19.80;99.90;;;;;;5000142;28;20514;-87
2023/07/28 08:28:04;;;;;;;9.52;3.92;;;19.80;99.90;;;;;;5016538;28;20088;-87
2023/07/28 08:30:31;;;;;;;8.35;4.15;;;19.80;99.90;;;;;;5032212;28;20726;-86
2023/07/28 08:32:59;;;;;;;5.15;2.92;;;19.80;99.90;;;;;;5000204;28;20049;-87
2023/07/28 08:35:26;;;;;;;5.95;3.72;;;19.90;99.90;;;;;;5032312;28;20413;-87
2023/07/28 08:37:52;;;;;;;4.38;3.13;;;19.90;99.90;;;;;;5016719;28;20129;-87
2023/07/28 08:40:19;;;;;;;6.20;3.60;;;19.90;99.90;;;;;;5032388;28;20153;-87
2023/07/28 08:42:46;;;;;;;6.97;3.70;;;19.90;99.90;;;;;;5015880;28;20077;-87
2023/07/28 08:45:14;;;;;;;6.55;3.92;;;19.90;99.90;;;;;;5016400;28;20409;-87
2023/07/28 08:47:40;;;;;;;6.65;4.28;;;19.90;99.90;;;;;;5016420;28;20513;-87
2023/07/28 08:50:08;;;;;;;7.40;3.80;;;19.90;99.90;;;;;;5016429;28;20069;-87
2023/07/28 08:52:36;;;;;;;6.50;3.30;;;19.80;99.90;;;;;;5015913;28;20049;-86
2023/07/28 08:55:03;;;;;;;6.85;3.60;;;19.80;99.90;;;;;;5032452;28;20044;-87
2023/07/28 08:57:30;;;;;;;5.00;3.03;;;19.90;99.90;;;;;;5015990;28;20129;-87
2023/07/28 08:59:56;;;;;;;12.40;3.80;;;20.00;99.90;;;;;;5048588;28;20572;-87
2023/07/28 09:02:27;;;;;;;4.22;3.00;;;20.20;99.90;;;;;;5015867;28;20046;-87
2023/07/28 09:04:54;;;;;;;5.75;3.30;;;20.10;99.90;;;;;;5048015;28;20058;-87
2023/07/28 09:07:21;;;;;;;5.47;3.10;;;20.20;99.90;;;;;;5015433;28;20111;-86
2023/07/28 09:09:48;;;;;;;4.00;2.58;;;20.40;99.90;;;;;;5048302;28;20060;-87
2023/07/28 09:12:15;;;;;;;3.97;2.97;;;20.50;99.90;;;;;;5015422;28;20184;-87
2023/07/28 09:14:42;;;;;;;4.40;3.15;;;20.60;99.90;;;;;;5031572;28;20393;-86
2023/07/28 09:17:10;;;;;;;4.57;3.05;;;20.60;99.90;;;;;;5015802;28;20091;-87
2023/07/28 09:19:54;;;;;;;4.20;2.60;;;20.70;99.90;;;;;;5047427;28;20049;-87
2023/07/28 09:22:22;;;;;;;8.65;3.10;;;20.70;99.90;;;;;;5031543;28;20048;-86
2023/07/28 09:24:50;;;;;;;3.90;2.70;;;20.80;99.90;;;;;;5031073;28;20457;-86
2023/07/28 09:27:24;;;;;;;6.30;3.22;;;21.00;99.90;;;;;;5031192;28;20046;-87
2023/07/28 09:29:54;;;;;;;5.25;2.42;;;21.10;99.90;;;;;;5047749;28;20181;-87
2023/07/28 09:32:37;;;;;;;4.47;2.22;;;21.30;99.90;;;;;;5047658;28;20042;-86
2023/07/28 09:35:09;;;;;;;;;;;21.40;99.90;;;;;;5017122;28;20045;-87
2023/07/28 09:38:02;;;;;;;4.93;2.25;;;21.40;99.90;;;;;;5047693;28;19917;-87
2023/07/28 09:40:29;;;;;;;3.50;2.42;;;21.60;99.90;;;;;;5047442;28;20081;-87
2023/07/28 09:42:56;;;;;;;4.97;2.22;;;21.60;99.90;;;;;;5015231;28;20673;-87
2023/07/28 09:45:23;;;;;;;5.57;2.20;;;21.70;99.90;;;;;;5031376;28;20104;-86
2023/07/28 09:47:56;;;;;;;4.30;2.20;;;21.70;99.90;;;;;;5031244;28;20103;-87
2023/07/28 09:50:26;;;;;;;4.43;2.20;;;21.60;99.90;;;;;;5047592;28;20042;-87
2023/07/28 09:52:55;;;;;;;4.82;2.05;;;21.50;99.90;;;;;;5047163;28;20046;-87
2023/07/28 09:55:25;;;;;;;4.88;2.15;;;21.40;99.90;;;;;;5047542;28;20041;-86
2023/07/28 09:57:54;;;;;;;3.45;2.05;;;21.30;99.90;;;;;;5047313;28;20053;-87
2023/07/28 10:00:22;;;;;;;5.45;1.90;;;21.30;99.90;;;;;;5063794;28;20049;-87
2023/07/28 10:02:50;;;;;;;3.97;2.25;;;21.40;99.90;;;;;;5047169;28;20494;-87
2023/07/28 10:05:17;;;;;;;5.68;2.40;;;21.60;99.90;;;;;;5046975;28;20064;-86
2023/07/28 10:07:44;;;;;;;4.35;2.53;;;22.00;99.90;;;;;;5030659;28;20049;-87
2023/07/28 10:10:14;;;;;;;4.72;2.25;;;22.00;99.90;;;;;;5046785;28;20441;-87
2023/07/28 10:12:49;;;;;;;4.35;2.35;;;22.20;99.90;;;;;;5046554;28;20033;-87
2023/07/28 10:15:17;;;;;;;;;;;22.20;99.90;;;;;;5047474;28;20402;-87
2023/07/28 10:17:47;;;;;;;3.72;2.08;;;22.10;99.90;;;;;;5046051;28;19968;-86
2023/07/28 10:20:35;;;;;;;7.57;2.88;;;22.00;99.90;;;;;;5046583;28;20045;-87
2023/07/28 10:23:14;;;;;;;5.25;1.77;;;21.90;99.90;;;;;;5015022;28;20037;-86
2023/07/28 10:25:43;;;;;;;5.28;2.03;;;21.90;99.90;;;;;;5046553;28;20042;-87
2023/07/28 10:28:27;;;;;;;3.70;1.67;;;22.10;99.90;;;;;;5046822;28;20136;-87
2023/07/28 10:30:55;;;;;;;3.67;2.20;;;22.40;99.90;;;;;;5046554;28;20056;-87
2023/07/28 10:33:33;;;;;;;3.35;2.15;;;22.60;99.90;;;;;;5014640;28;20030;-87
2023/07/28 10:36:22;;;;;;;4.28;2.35;;;22.60;99.90;;;;;;5046440;28;20140;-86
2023/07/28 10:39:12;;;;;;;4.00;2.28;;;22.60;99.90;;;;;;5046123;28;20061;-86
2023/07/28 10:45:04;;;;;;;3.33;2.17;;;22.00;99.90;;;;;;5036642;28;20124;-87
2023/07/28 10:47:30;;;;;;;6.03;2.63;;;21.90;99.90;;;;;;5029451;28;20552;-87
2023/07/28 10:50:04;;;;;;;4.50;2.15;;;21.70;99.90;;;;;;4996881;28;20136;-86
2023/07/28 10:52:31;;;;;;;5.90;2.13;;;21.70;99.90;;;;;;5029229;28;20042;-87
2023/07/28 10:55:01;;;;;;;4.47;2.42;;;21.70;99.90;;;;;;5032025;28;20049;-87
2023/07/28 10:57:27;;;;;;;4.13;2.20;;;21.60;99.90;;;;;;5000213;28;20386;-87
2023/07/28 10:59:59;;;;;;;5.38;2.13;;;21.80;99.90;;;;;;5016347;28;20041;-87
2023/07/28 11:02:27;;;;;;;3.30;2.10;;;22.10;99.90;;;;;;5016888;28;20084;-87
2023/07/28 11:04:54;;;;;;;4.40;2.10;;;22.40;99.90;;;;;;4999780;28;20049;-86
2023/07/28 11:07:21;;;;;;;4.80;2.20;;;22.90;99.90;;;;;;5016266;28;20087;-86
2023/07/28 11:09:48;;;;;;;4.05;2.00;;;23.00;99.90;;;;;;5000393;28;20132;-86
2023/07/28 11:12:14;;;;;;;3.97;2.00;;;22.90;99.90;;;;;;5016055;28;20048;-87
2023/07/28 11:14:41;;;;;;;5.65;2.10;;;22.80;99.90;;;;;;4997232;28;20049;-86
2023/07/28 11:17:08;;;;;;;6.43;2.00;;;22.80;99.90;;;;;;5045392;28;20115;-87
2023/07/28 11:19:35;;;;;;;3.35;1.88;;;22.90;99.90;;;;;;5029924;28;20398;-87
2023/07/28 11:22:02;;;;;;;4.70;2.17;;;23.20;99.90;;;;;;5013106;28;20115;-86
2023/07/28 11:24:29;;;;;;;2.97;1.48;;;23.30;99.90;;;;;;5013611;28;20042;-87
2023/07/28 11:26:58;;;;;;;4.55;2.00;;;23.30;99.90;;;;;;5029385;28;20049;-87
2023/07/28 11:29:26;;;;;;;3.40;1.83;;;23.30;99.90;;;;;;5045708;28;20038;-86
2023/07/28 11:31:53;;;;;;;5.32;2.20;;;23.40;99.90;;;;;;5045806;28;20038;-87
2023/07/28 11:34:20;;;;;;;5.35;2.20;;;23.40;99.90;;;;;;5013504;28;20404;-87
2023/07/28 11:37:05;;;;;;;4.28;2.15;;;23.40;99.90;;;;;;5047635;28;20042;-87
2023/07/28 11:39:32;;;;;;;6.32;2.00;;;23.20;99.90;;;;;;5049598;28;20042;-87
2023/07/28 11:41:59;;;;;;;5.70;2.10;;;23.20;99.90;;;;;;5049732;28;20046;-86
2023/07/28 11:44:26;;;;;;;6.13;1.90;;;23.20;99.90;;;;;;5033182;28;20051;-87
2023/07/28 11:46:55;;;;;;;4.18;1.50;;;23.40;99.90;;;;;;5049131;28;20046;-87
2023/07/28 11:49:22;;;;;;;5.22;2.00;;;23.50;99.90;;;;;;5017537;28;20033;-87
2023/07/28 11:51:52;;;;;;;5.30;1.70;;;23.60;99.90;;;;;;5033642;28;20042;-87
2023/07/28 11:54:21;;;;;;;5.40;1.98;;;23.90;99.90;;;;;;5033131;28;20042;-86
2023/07/28 11:56:50;;;;;;;3.85;1.92;;;24.00;99.90;;;;;;5066365;28;20037;-87
2023/07/28 11:59:19;;;;;;;5.97;1.70;;;24.00;99.90;;;;;;5065902;28;20048;-87
2023/07/28 12:01:56;;;;;;;4.18;1.75;;;23.90;99.90;;;;;;5049341;28;20045;-87
2023/07/28 12:04:36;;;;;;;4.47;1.77;;;23.80;99.90;;;;;;5049311;28;20038;-87
2023/07/28 12:07:19;;;;;;;3.35;1.42;;;24.10;99.90;;;;;;5033100;28;20053;-86
2023/07/28 12:09:46;;;;;;;5.28;1.90;;;24.20;99.90;;;;;;5032705;28;20902;-87
2023/07/28 12:12:13;;;;;;;3.42;1.55;;;24.10;99.90;;;;;;5032541;28;20042;-85
2023/07/28 12:14:40;;;;;;;3.10;1.70;;;24.20;99.90;;;;;;5032613;28;20468;-85
2023/07/28 12:17:22;;;;;;;5.22;1.90;;;24.20;99.90;;;;;;5015810;28;20050;-85
2023/07/28 12:20:14;;;;;;;4.05;1.70;;;24.20;99.90;;;;;;5032367;28;20513;-85
2023/07/28 12:22:41;;;;;;;3.95;1.80;;;24.20;99.90;;;;;;5032333;28;20044;-85
2023/07/28 12:25:09;;;;;;;4.93;1.70;;;24.30;99.90;;;;;;5015565;28;20042;-85
2023/07/28 12:27:36;;;;;;;4.95;1.50;;;24.50;99.90;;;;;;5015996;28;20033;-85
2023/07/28 12:30:03;;;;;;;3.50;1.40;;;24.60;99.90;;;;;;5032058;28;20046;-85
2023/07/28 12:32:30;;;;;;;3.47;1.30;;;24.50;99.90;;;;;;5032229;28;20049;-84
2023/07/28 12:34:57;;;;;;;3.38;1.40;;;24.20;99.90;;;;;;5032328;28;20054;-85
2023/07/28 12:37:23;;;;;;;3.30;1.50;;;23.90;99.90;;;;;;5032229;28;20124;-85
2023/07/28 12:39:50;;;;;;;3.15;1.30;;;23.90;99.90;;;;;;5015783;28;20053;-85
2023/07/28 12:42:17;;;;;;;6.95;1.45;;;23.90;99.90;;;;;;5031678;28;20050;-85
2023/07/28 12:44:43;;;;;;;3.85;1.50;;;23.90;99.90;;;;;;4999627;28;20128;-85
2023/07/28 12:47:11;;;;;;;2.60;1.50;;;24.00;99.90;;;;;;5047442;28;20477;-85
2023/07/28 12:49:37;;;;;;;2.60;1.38;;;23.90;99.90;;;;;;4998914;28;20038;-85